Airfield :
LOGIN :

Register | Disclaimer

   EN    FR    IT 

 










Legend :    VFR   Marginal VFR   IFR   Intensive IFR   Very Intensive IFR
Visi :
Ceiling :
>= 8 km
>= 3000ft
5 to 8 km
1000 to 3000 ft
1500m to 5 km
500 to 1000 ft
800 to 1500m
200 to 500 ft
< 800m
< 200 ft
Symbols :   Thunderstorms  Fog  Heavy snow  Heavy precipitations  Wind > 20 kt
SIGMETs :     Misc.  Thunderstorms  Icing  Turbulence  Mountain Waves  Volcanic Ashes






- Airport Elevation : 270 ft
- IATA code : OXF


EGTK - Oxford (Kidlington)

CURRENT METAR :
  • 271750Z 30006KT CAVOK 05/M02 Q1009

EXPIRED METARs :
  • 271720Z 31011KT 280V340 9999 FEW046 06/M02 Q1009
  • 271650Z 30014KT 9999 FEW045 06/M02 Q1008
  • 271620Z 30014KT 9999 FEW043 07/M02 Q1007
  • 271550Z 31017G27KT 9999 FEW042 07/M02 Q1007
  • 271520Z 31016KT 290V350 9999 FEW042 07/M01 Q1006

TAF TAF EGTK
Valid from the 27 at 18:00 until the 27 at 22:00 UTC


271707Z 2718/2722 31012KT 9999 FEW035



MET'MAP, your aeronautical weather chart ! - Copyright ORBIFLY December 2007 - Disclaimer

ORBIFLY MET'MAP TEAM :

Programming & Development : Alexandra Zaïnal
Concept & original design : Baudouin d'Aumeries
Assistance for programming : Marc-Olivier Méhu
Technical & hardware support : Manuel Goepfert

Contact : metmap@orbifly.com




SOURCES & CREDITS :

   NOAA